createdAt,value
2022-12-31T00:01:28.637Z,99586.38
2022-12-31T00:03:57.044Z,99594.94
2022-12-31T00:06:27.390Z,99588.13
2022-12-31T00:08:56.958Z,99584.69
2022-12-31T00:11:26.562Z,99590.53
2022-12-31T00:13:56.455Z,99597.03
2022-12-31T00:16:25.666Z,99598.81
2022-12-31T00:18:56.541Z,99607.63
2022-12-31T00:21:24.379Z,99607.59
2022-12-31T00:23:52.968Z,99615.19
2022-12-31T00:26:25.151Z,99614.47
2022-12-31T00:28:54.594Z,99618.34
2022-12-31T00:31:27.927Z,99620.97
2022-12-31T00:33:57.008Z,99617.81
2022-12-31T00:36:30.209Z,99628.75
2022-12-31T00:39:01.826Z,99619.91
2022-12-31T00:41:29.616Z,99620.91
2022-12-31T00:43:57.206Z,99618.53
2022-12-31T00:46:25.203Z,99620.31
2022-12-31T00:48:53.200Z,99629.66
2022-12-31T00:51:23.907Z,99632.19
2022-12-31T00:53:51.390Z,99634.31
2022-12-31T00:56:21.481Z,99638.47
2022-12-31T00:58:50.014Z,99641.19
2022-12-31T01:01:25.486Z,99644.88
2022-12-31T01:03:55.718Z,99636.69
2022-12-31T01:06:23.836Z,99630.31
2022-12-31T01:08:53.962Z,99628.75
2022-12-31T01:11:22.720Z,99630.91
2022-12-31T01:14:00.905Z,99643.00
2022-12-31T01:16:32.429Z,99639.66
2022-12-31T01:19:02.525Z,99636.34
2022-12-31T01:21:31.781Z,99637.41
2022-12-31T01:24:00.240Z,99642.25
2022-12-31T01:26:28.375Z,99646.28
2022-12-31T01:28:56.136Z,99644.03
2022-12-31T01:31:24.980Z,99656.69
2022-12-31T01:33:52.998Z,99650.75
2022-12-31T01:36:26.261Z,99660.22
2022-12-31T01:38:55.741Z,99660.69
2022-12-31T01:41:33.019Z,99663.09
2022-12-31T01:44:03.435Z,99660.25
2022-12-31T01:46:54.912Z,99659.72
2022-12-31T01:49:54.272Z,99650.59
2022-12-31T01:52:32.670Z,99654.59
2022-12-31T01:55:06.099Z,99655.06
2022-12-31T01:57:35.030Z,99660.63
2022-12-31T02:00:04.921Z,99654.03
2022-12-31T02:02:32.856Z,99657.03
2022-12-31T02:05:05.702Z,99659.63
2022-12-31T02:07:33.233Z,99658.19
2022-12-31T02:10:01.843Z,99660.81
2022-12-31T02:12:29.552Z,99663.06
2022-12-31T02:14:57.337Z,99665.81
2022-12-31T02:17:43.410Z,99665.25
2022-12-31T02:20:29.322Z,99672.00
2022-12-31T02:22:56.762Z,99658.59
2022-12-31T02:25:27.299Z,99661.75
2022-12-31T02:28:27.998Z,99662.16
2022-12-31T02:31:16.960Z,99667.25
2022-12-31T02:34:09.045Z,99674.78
2022-12-31T02:36:40.753Z,99679.31
2022-12-31T02:39:10.112Z,99674.81
2022-12-31T02:41:49.983Z,99675.41
2022-12-31T02:44:20.495Z,99671.22
2022-12-31T02:47:08.216Z,99671.28
2022-12-31T02:50:05.141Z,99669.38
2022-12-31T02:53:06.773Z,99657.81
2022-12-31T02:55:55.421Z,99660.50
2022-12-31T02:59:01.526Z,99658.38
2022-12-31T03:01:53.907Z,99654.94
2022-12-31T03:04:32.297Z,99662.06
2022-12-31T03:07:05.866Z,99663.94
2022-12-31T03:09:35.349Z,99658.50
2022-12-31T03:12:23.984Z,99651.09
2022-12-31T03:14:51.718Z,99645.00
2022-12-31T03:17:19.633Z,99661.59
2022-12-31T03:20:05.907Z,99659.47
2022-12-31T03:22:36.475Z,99651.22
2022-12-31T03:25:25.736Z,99645.25
2022-12-31T03:27:54.056Z,99640.69
2022-12-31T03:30:23.349Z,99652.81
2022-12-31T03:32:51.595Z,99653.25
2022-12-31T03:35:20.645Z,99652.38
2022-12-31T03:37:49.390Z,99647.84
2022-12-31T03:40:18.345Z,99646.91
2022-12-31T03:42:46.534Z,99651.16
2022-12-31T03:45:14.317Z,99650.22
2022-12-31T03:47:41.900Z,99658.00
2022-12-31T03:50:12.395Z,99648.50
2022-12-31T03:52:39.929Z,99647.72
2022-12-31T03:55:08.750Z,99642.13
2022-12-31T03:57:36.788Z,99636.75
2022-12-31T04:00:10.878Z,99639.13
2022-12-31T04:02:38.780Z,99641.34
2022-12-31T04:05:06.999Z,99635.91
2022-12-31T04:07:34.680Z,99630.56
2022-12-31T04:10:04.392Z,99638.03
2022-12-31T04:12:32.663Z,99642.13
2022-12-31T04:15:00.468Z,99639.78
2022-12-31T04:17:27.989Z,99649.59
2022-12-31T04:19:56.366Z,99651.75
2022-12-31T04:22:23.887Z,99668.81
2022-12-31T04:24:51.528Z,99663.03
2022-12-31T04:27:19.106Z,99669.19
2022-12-31T04:29:46.773Z,99675.47
2022-12-31T04:32:14.365Z,99685.16
2022-12-31T04:34:43.013Z,99672.22
2022-12-31T04:37:10.568Z,99672.78
2022-12-31T04:39:39.253Z,99674.28
2022-12-31T04:42:06.807Z,99683.09
2022-12-31T04:44:35.136Z,99682.41
2022-12-31T04:47:02.690Z,99683.72
2022-12-31T04:49:30.428Z,99692.03
2022-12-31T04:51:57.857Z,99696.00
2022-12-31T04:54:25.311Z,99702.16
2022-12-31T04:56:52.864Z,99710.47
2022-12-31T04:59:20.498Z,99716.25
2022-12-31T05:01:48.149Z,99713.84
2022-12-31T05:04:15.680Z,99711.59
2022-12-31T05:06:43.266Z,99722.13
2022-12-31T05:09:10.985Z,99738.25
2022-12-31T05:11:39.355Z,99731.13
2022-12-31T05:14:06.918Z,99743.31
2022-12-31T05:16:34.520Z,99742.22
2022-12-31T05:19:02.162Z,99738.44
2022-12-31T05:21:29.711Z,99733.41
2022-12-31T05:23:57.210Z,99737.34
2022-12-31T05:26:24.667Z,99734.59
2022-12-31T05:28:52.380Z,99734.44
2022-12-31T05:31:20.156Z,99738.47
2022-12-31T05:33:48.688Z,99739.44
2022-12-31T05:36:16.193Z,99737.06
2022-12-31T05:38:43.772Z,99747.19
2022-12-31T05:41:11.712Z,99744.72
2022-12-31T05:43:39.302Z,99755.72
2022-12-31T05:46:06.863Z,99759.31
2022-12-31T05:48:34.383Z,99762.19
2022-12-31T05:51:01.911Z,99770.59
2022-12-31T05:53:29.672Z,99763.97
2022-12-31T05:55:57.248Z,99774.28
2022-12-31T05:58:24.767Z,99765.72
2022-12-31T06:00:52.745Z,99773.88
2022-12-31T06:03:20.400Z,99776.94
2022-12-31T06:05:48.013Z,99779.44
2022-12-31T06:08:15.623Z,99778.97
2022-12-31T06:10:45.822Z,99779.22
2022-12-31T06:13:13.389Z,99780.88
2022-12-31T06:15:40.937Z,99777.34
2022-12-31T06:18:08.789Z,99765.34
2022-12-31T06:20:37.807Z,99771.16
2022-12-31T06:23:05.863Z,99778.00
2022-12-31T06:25:35.684Z,99775.75
2022-12-31T06:28:04.432Z,99774.44
2022-12-31T06:30:32.441Z,99784.06
2022-12-31T06:32:59.953Z,99782.63
2022-12-31T06:35:27.463Z,99778.72
2022-12-31T06:37:54.999Z,99787.75
2022-12-31T06:40:22.531Z,99780.00
2022-12-31T06:42:56.034Z,99791.75
2022-12-31T06:45:28.262Z,99784.75
2022-12-31T06:47:55.807Z,99789.44
2022-12-31T06:50:23.359Z,99790.75
2022-12-31T06:52:51.223Z,99787.25
2022-12-31T06:55:19.096Z,99792.53
2022-12-31T06:57:47.189Z,99797.78
2022-12-31T07:00:15.413Z,99797.53
2022-12-31T07:03:08.056Z,99804.50
2022-12-31T07:05:50.664Z,99806.19
2022-12-31T07:09:02.750Z,99794.34
2022-12-31T07:11:44.893Z,99799.97
2022-12-31T07:14:31.099Z,99787.00
2022-12-31T07:17:23.506Z,99795.66
2022-12-31T07:20:07.768Z,99804.50
2022-12-31T07:22:36.713Z,99811.72
2022-12-31T07:25:06.612Z,99811.63
2022-12-31T07:27:42.843Z,99806.97
2022-12-31T07:30:21.463Z,99809.75
2022-12-31T07:33:26.183Z,99804.63
2022-12-31T07:36:12.443Z,99806.78
2022-12-31T07:38:53.182Z,99810.13
2022-12-31T07:41:29.715Z,99808.84
2022-12-31T07:43:57.889Z,99823.31
2022-12-31T07:46:43.030Z,99826.63
2022-12-31T07:49:14.213Z,99820.13
2022-12-31T07:51:42.280Z,99829.41
2022-12-31T07:54:13.874Z,99832.59
2022-12-31T07:56:43.082Z,99827.25
2022-12-31T07:59:24.563Z,99821.97
2022-12-31T08:02:05.094Z,99820.06
2022-12-31T08:04:42.503Z,99837.56
2022-12-31T08:07:15.681Z,99852.50
2022-12-31T08:09:45.942Z,99856.28
2022-12-31T08:12:14.244Z,99865.03
2022-12-31T08:14:47.227Z,99864.72
2022-12-31T08:17:17.871Z,99858.28
2022-12-31T08:19:46.289Z,99882.41
2022-12-31T08:22:26.108Z,99887.50
2022-12-31T08:25:21.212Z,99890.97
2022-12-31T08:28:09.068Z,99899.53
2022-12-31T08:31:04.363Z,99898.13
2022-12-31T08:33:40.364Z,99911.50
2022-12-31T08:36:27.776Z,99904.16
2022-12-31T08:39:07.668Z,99924.59
2022-12-31T08:41:47.762Z,99921.84
2022-12-31T08:44:33.691Z,99935.03
2022-12-31T08:47:23.091Z,99907.69
2022-12-31T08:49:51.004Z,99920.81
2022-12-31T08:52:26.814Z,99924.34
2022-12-31T08:54:55.020Z,99935.63
2022-12-31T08:57:42.567Z,99936.81
2022-12-31T09:00:16.906Z,99932.03
2022-12-31T09:03:08.683Z,99937.72
2022-12-31T09:06:00.468Z,99933.38
2022-12-31T09:08:52.652Z,99928.53
2022-12-31T09:11:34.011Z,99931.22
2022-12-31T09:14:25.811Z,99926.06
2022-12-31T09:16:56.562Z,99918.25
2022-12-31T09:19:24.134Z,99911.38
2022-12-31T09:21:51.995Z,99911.78
2022-12-31T09:24:19.834Z,99914.69
2022-12-31T09:26:56.152Z,99908.28
2022-12-31T09:29:29.739Z,99901.75
2022-12-31T09:32:20.880Z,99896.53
2022-12-31T09:34:57.280Z,99889.50
2022-12-31T09:37:30.965Z,99886.50
2022-12-31T09:40:28.662Z,99878.00
2022-12-31T09:43:14.560Z,99865.34
2022-12-31T09:46:04.872Z,99862.25
2022-12-31T09:49:03.676Z,99867.94
2022-12-31T09:51:38.239Z,99860.59
2022-12-31T09:54:17.641Z,99856.31
2022-12-31T09:57:17.336Z,99861.72
2022-12-31T10:00:10.968Z,99853.00
2022-12-31T10:03:08.650Z,99846.50
2022-12-31T10:05:54.631Z,99845.53
2022-12-31T10:09:01.563Z,99856.72
2022-12-31T10:11:32.031Z,99858.88
2022-12-31T10:14:33.441Z,99860.47
2022-12-31T10:17:16.744Z,99865.00
2022-12-31T10:20:05.752Z,99861.84
2022-12-31T10:23:04.636Z,99857.91
2022-12-31T10:25:50.392Z,99858.09
2022-12-31T10:28:19.052Z,99873.06
2022-12-31T10:31:03.113Z,99869.56
2022-12-31T10:33:30.627Z,99871.59
2022-12-31T10:36:21.040Z,99863.84
2022-12-31T10:38:48.489Z,99859.31
2022-12-31T10:41:25.029Z,99865.53
2022-12-31T10:44:19.889Z,99867.72
2022-12-31T10:47:19.407Z,99871.69
2022-12-31T10:49:56.060Z,99874.09
2022-12-31T10:52:45.492Z,99869.06
2022-12-31T10:55:39.374Z,99863.44
2022-12-31T10:58:21.991Z,99864.78
2022-12-31T11:01:18.801Z,99849.94
2022-12-31T11:04:20.454Z,99862.16
2022-12-31T11:07:19.634Z,99861.50
2022-12-31T11:10:20.401Z,99876.00
2022-12-31T11:13:09.401Z,99856.81
2022-12-31T11:15:42.038Z,99849.31
2022-12-31T11:18:12.800Z,99846.72
2022-12-31T11:20:56.049Z,99839.50
2022-12-31T11:23:38.457Z,99844.38
2022-12-31T11:26:55.425Z,99846.41
2022-12-31T11:29:50.793Z,99851.75
2022-12-31T11:32:45.281Z,99841.50
2022-12-31T11:35:22.271Z,99844.13
2022-12-31T11:38:15.017Z,99834.88
2022-12-31T11:40:48.076Z,99834.97
2022-12-31T11:43:15.459Z,99831.66
2022-12-31T11:45:50.724Z,99822.22
2022-12-31T11:48:30.578Z,99814.16
2022-12-31T11:51:16.550Z,99815.03
2022-12-31T11:54:01.231Z,99826.38
2022-12-31T11:56:37.412Z,99825.44
2022-12-31T11:59:18.848Z,99835.16
2022-12-31T12:02:04.440Z,99838.38
2022-12-31T12:04:32.022Z,99837.84
2022-12-31T12:06:59.723Z,99853.63
2022-12-31T12:09:30.228Z,99854.34
2022-12-31T12:12:03.655Z,99852.00
2022-12-31T12:14:35.273Z,99852.19
2022-12-31T12:17:06.523Z,99841.44
2022-12-31T12:19:36.106Z,99842.44
2022-12-31T12:22:19.891Z,99831.69
2022-12-31T12:24:56.936Z,99830.63
2022-12-31T12:27:29.274Z,99831.38
2022-12-31T12:29:57.486Z,99832.06
2022-12-31T12:32:26.954Z,99827.88
2022-12-31T12:34:54.461Z,99826.84
2022-12-31T12:37:24.745Z,99830.78
2022-12-31T12:40:02.327Z,99836.13
2022-12-31T12:42:30.452Z,99835.50
2022-12-31T12:45:35.637Z,99848.88
2022-12-31T12:48:16.653Z,99839.13
2022-12-31T12:50:47.470Z,99840.78
2022-12-31T12:53:32.696Z,99839.66
2022-12-31T12:56:18.875Z,99839.16
2022-12-31T12:58:49.423Z,99835.50
2022-12-31T13:01:34.956Z,99830.50
2022-12-31T13:04:39.768Z,99832.22
2022-12-31T13:07:18.988Z,99835.50
2022-12-31T13:09:59.795Z,99832.22
2022-12-31T13:12:27.323Z,99827.88
2022-12-31T13:15:11.043Z,99829.72
2022-12-31T13:17:48.289Z,99828.56
2022-12-31T13:20:28.890Z,99837.13
2022-12-31T13:23:36.274Z,99847.72
2022-12-31T13:26:20.532Z,99847.72
2022-12-31T13:28:50.824Z,99853.78
2022-12-31T13:31:24.876Z,99847.69
2022-12-31T13:34:15.491Z,99837.66
2022-12-31T13:36:46.027Z,99833.97
2022-12-31T13:39:41.905Z,99847.19
2022-12-31T13:42:28.765Z,99845.63
2022-12-31T13:45:02.375Z,99846.31
2022-12-31T13:47:40.864Z,99843.81
2022-12-31T13:50:26.842Z,99846.34
2022-12-31T13:53:21.469Z,99857.72
2022-12-31T13:56:02.058Z,99870.75
2022-12-31T13:58:35.318Z,99859.06
2022-12-31T14:01:14.775Z,99858.59
2022-12-31T14:03:59.394Z,99862.59
2022-12-31T14:06:38.729Z,99854.28
2022-12-31T14:09:08.114Z,99863.31
2022-12-31T14:12:06.356Z,99859.38
2022-12-31T14:14:58.356Z,99869.53
2022-12-31T14:17:59.867Z,99877.13
2022-12-31T14:20:27.573Z,99861.06
2022-12-31T14:22:58.020Z,99870.78
2022-12-31T14:25:31.772Z,99873.59
2022-12-31T14:28:02.577Z,99880.78
2022-12-31T14:30:36.186Z,99884.56
2022-12-31T14:33:17.423Z,99870.88
2022-12-31T14:36:10.761Z,99878.25
2022-12-31T14:38:38.507Z,99874.88
2022-12-31T14:41:27.256Z,99873.34
2022-12-31T14:43:54.694Z,99880.25
2022-12-31T14:46:31.187Z,99871.00
2022-12-31T14:49:17.025Z,99883.16
2022-12-31T14:51:44.947Z,99882.69
2022-12-31T14:54:29.362Z,99895.19
2022-12-31T14:56:58.005Z,99877.19
2022-12-31T14:59:35.649Z,99883.69
2022-12-31T15:02:30.179Z,99892.56
2022-12-31T15:05:15.845Z,99885.63
2022-12-31T15:07:49.267Z,99890.00
2022-12-31T15:10:23.584Z,99889.25
2022-12-31T15:12:59.996Z,99888.13
2022-12-31T15:15:59.626Z,99885.56
2022-12-31T15:18:39.252Z,99897.75
2022-12-31T15:21:20.710Z,99883.88
2022-12-31T15:23:49.834Z,99898.59
2022-12-31T15:26:24.653Z,99901.72
2022-12-31T15:29:05.348Z,99892.91
2022-12-31T15:31:37.562Z,99883.34
2022-12-31T15:34:24.306Z,99894.19
2022-12-31T15:36:54.839Z,99902.72
2022-12-31T15:39:42.778Z,99899.28
2022-12-31T15:42:42.402Z,99907.41
2022-12-31T15:45:37.412Z,99912.34
2022-12-31T15:48:19.487Z,99905.56
2022-12-31T15:50:51.261Z,99904.19
2022-12-31T15:53:38.538Z,99910.69
2022-12-31T15:56:08.451Z,99907.69
2022-12-31T15:58:36.707Z,99902.53
2022-12-31T16:01:20.996Z,99904.00
2022-12-31T16:04:04.344Z,99923.50
2022-12-31T16:06:37.023Z,99918.63
2022-12-31T16:09:09.968Z,99907.66
2022-12-31T16:11:41.767Z,99904.91
2022-12-31T16:14:18.496Z,99909.91
2022-12-31T16:16:58.332Z,99909.38
2022-12-31T16:19:50.057Z,99904.47
2022-12-31T16:22:38.606Z,99905.22
2022-12-31T16:27:56.088Z,99904.31
2022-12-31T16:30:28.073Z,99900.72
2022-12-31T16:33:00.608Z,99905.16
2022-12-31T16:35:34.128Z,99909.97
2022-12-31T16:38:01.519Z,99910.25
2022-12-31T16:40:29.361Z,99907.63
2022-12-31T16:43:00.219Z,99913.13
2022-12-31T16:45:32.107Z,99901.25
2022-12-31T16:48:17.262Z,99912.03
2022-12-31T16:50:47.733Z,99907.34
2022-12-31T16:53:19.643Z,99902.75
2022-12-31T16:56:02.036Z,99912.69
2022-12-31T16:58:33.453Z,99904.66
2022-12-31T17:01:23.265Z,99915.47
2022-12-31T17:03:58.326Z,99920.56
2022-12-31T17:06:28.160Z,99913.78
2022-12-31T17:08:56.069Z,99918.31
2022-12-31T17:11:39.256Z,99916.94
2022-12-31T17:14:09.684Z,99902.84
2022-12-31T17:17:03.480Z,99911.69
2022-12-31T17:19:38.884Z,99907.84
2022-12-31T17:22:13.832Z,99912.78
2022-12-31T17:24:42.248Z,99916.69
2022-12-31T17:27:10.448Z,99922.88
2022-12-31T17:29:38.864Z,99918.91
2022-12-31T17:32:31.220Z,99916.13
2022-12-31T17:34:58.836Z,99929.81
2022-12-31T17:37:31.485Z,99933.94
2022-12-31T17:40:40.560Z,99927.84
2022-12-31T17:42:51.429Z,99934.59
2022-12-31T17:45:21.533Z,99932.81
2022-12-31T17:47:52.000Z,99929.91
2022-12-31T17:50:20.970Z,99930.59
2022-12-31T17:52:48.908Z,99934.25
2022-12-31T17:55:16.588Z,99941.56
2022-12-31T17:58:05.959Z,99940.41
2022-12-31T18:00:36.777Z,99934.16
2022-12-31T18:03:04.481Z,99932.84
2022-12-31T18:05:32.050Z,99927.63
2022-12-31T18:07:59.648Z,99926.34
2022-12-31T18:10:29.492Z,99924.53
2022-12-31T18:13:01.849Z,99922.81
2022-12-31T18:15:29.422Z,99933.28
2022-12-31T18:17:57.121Z,99929.03
2022-12-31T18:20:25.748Z,99921.75
2022-12-31T18:22:53.330Z,99930.53
2022-12-31T18:25:24.031Z,99928.94
2022-12-31T18:27:52.533Z,99925.78
2022-12-31T18:30:20.094Z,99926.34
2022-12-31T18:32:47.783Z,99928.72
2022-12-31T18:36:06.422Z,99929.44
2022-12-31T18:38:14.720Z,99933.88
2022-12-31T18:40:46.469Z,99930.88
2022-12-31T18:43:17.427Z,99940.16
2022-12-31T18:45:46.392Z,99953.50
2022-12-31T18:48:14.550Z,99947.91
2022-12-31T18:50:42.319Z,99946.59
2022-12-31T18:53:22.264Z,99956.81
2022-12-31T18:55:57.571Z,99948.13
2022-12-31T18:58:25.053Z,99953.75
2022-12-31T19:00:52.750Z,99956.59
2022-12-31T19:03:23.333Z,99959.09
2022-12-31T19:05:52.136Z,99958.38
2022-12-31T19:08:21.771Z,99956.72
2022-12-31T19:10:51.442Z,99958.47
2022-12-31T19:13:20.201Z,99953.97
2022-12-31T19:15:50.223Z,99959.91
2022-12-31T19:18:17.953Z,99962.88
2022-12-31T19:20:45.967Z,99955.75
2022-12-31T19:23:19.577Z,99958.13
2022-12-31T19:25:48.018Z,99958.66
2022-12-31T19:28:18.325Z,99952.81
2022-12-31T19:30:46.695Z,99957.00
2022-12-31T19:33:14.947Z,99957.34
2022-12-31T19:35:43.393Z,99958.31
2022-12-31T19:38:18.933Z,99957.94
2022-12-31T19:40:47.461Z,99968.38
2022-12-31T19:43:18.875Z,99970.25
2022-12-31T19:45:47.276Z,99965.88
2022-12-31T19:48:18.469Z,99965.63
2022-12-31T19:50:48.818Z,99963.88
2022-12-31T19:53:22.333Z,99954.22
2022-12-31T19:55:50.638Z,99949.06
2022-12-31T19:58:21.431Z,99951.38
2022-12-31T20:00:55.674Z,99942.09
2022-12-31T20:03:25.083Z,99930.91
2022-12-31T20:06:05.623Z,99937.19
2022-12-31T20:08:34.547Z,99935.66
2022-12-31T20:11:16.010Z,99941.47
2022-12-31T20:13:43.763Z,99935.06
2022-12-31T20:16:17.173Z,99929.00
2022-12-31T20:18:46.800Z,99929.22
2022-12-31T20:21:20.068Z,99937.09
2022-12-31T20:23:51.865Z,99934.59
2022-12-31T20:26:20.366Z,99928.78
2022-12-31T20:28:48.694Z,99927.59
2022-12-31T20:31:23.527Z,99927.22
2022-12-31T20:33:53.656Z,99932.09
2022-12-31T20:36:22.257Z,99933.97
2022-12-31T20:38:50.329Z,99937.72
2022-12-31T20:41:20.462Z,99938.41
2022-12-31T20:43:50.968Z,99944.47
2022-12-31T20:46:25.807Z,99937.81
2022-12-31T20:48:56.063Z,99931.63
2022-12-31T20:51:24.482Z,99938.91
2022-12-31T20:53:55.478Z,99928.41
2022-12-31T20:56:24.774Z,99923.31
2022-12-31T20:58:52.343Z,99925.00
2022-12-31T21:01:20.684Z,99918.59
2022-12-31T21:04:05.964Z,99923.22
2022-12-31T21:06:35.705Z,99919.75
2022-12-31T21:09:05.838Z,99934.31
2022-12-31T21:11:52.235Z,99933.13
2022-12-31T21:14:20.065Z,99924.59
2022-12-31T21:16:47.659Z,99920.75
2022-12-31T21:19:15.810Z,99928.81
2022-12-31T21:21:48.109Z,99930.72
2022-12-31T21:24:21.801Z,99941.34
2022-12-31T21:26:54.364Z,99946.63
2022-12-31T21:29:21.894Z,99948.63
2022-12-31T21:31:49.775Z,99946.09
2022-12-31T21:34:17.348Z,99943.13
2022-12-31T21:36:47.023Z,99948.06
2022-12-31T21:39:14.669Z,99956.84
2022-12-31T21:41:51.091Z,99959.00
2022-12-31T21:44:26.964Z,99956.53
2022-12-31T21:47:35.410Z,99967.94
2022-12-31T21:50:05.307Z,99969.72
2022-12-31T21:52:35.072Z,99968.13
2022-12-31T21:55:25.292Z,99973.84
2022-12-31T22:01:09.546Z,99968.63
2022-12-31T22:03:37.276Z,99966.47
2022-12-31T22:06:12.792Z,99976.78
2022-12-31T22:08:41.810Z,99984.50
2022-12-31T22:11:10.695Z,99982.09
2022-12-31T22:13:38.604Z,99980.16
2022-12-31T22:16:09.809Z,99973.72
2022-12-31T22:18:39.332Z,99969.47
2022-12-31T22:21:15.698Z,99975.09
2022-12-31T22:23:48.630Z,99980.41
2022-12-31T22:26:18.451Z,99977.16
2022-12-31T22:28:46.625Z,99976.22
2022-12-31T22:31:24.575Z,99973.97
2022-12-31T22:33:52.560Z,99966.44
2022-12-31T22:36:22.523Z,99966.34
2022-12-31T22:38:55.696Z,99960.84
2022-12-31T22:41:24.583Z,99971.97
2022-12-31T22:44:00.503Z,99964.59
2022-12-31T22:46:30.692Z,99974.09
2022-12-31T22:48:59.677Z,99974.50
2022-12-31T22:51:55.963Z,99979.41
2022-12-31T22:54:15.198Z,99972.38
2022-12-31T22:56:42.806Z,99975.22
2022-12-31T22:59:11.808Z,99958.75
2022-12-31T23:01:39.466Z,99954.25
2022-12-31T23:04:07.063Z,99944.03
2022-12-31T23:06:43.379Z,99950.94
2022-12-31T23:09:30.975Z,99942.56
2022-12-31T23:11:59.186Z,99937.88
2022-12-31T23:14:46.434Z,99935.53
2022-12-31T23:17:39.180Z,99941.06
2022-12-31T23:20:29.461Z,99952.91
2022-12-31T23:23:26.341Z,99944.78
2022-12-31T23:26:01.223Z,99950.72
2022-12-31T23:28:29.014Z,99952.91
2022-12-31T23:30:56.653Z,99953.53
2022-12-31T23:33:26.121Z,99956.47
2022-12-31T23:36:07.499Z,99970.25
2022-12-31T23:38:36.923Z,99965.75
2022-12-31T23:41:16.048Z,99975.03
2022-12-31T23:43:44.170Z,99970.88
2022-12-31T23:46:13.032Z,99969.28
2022-12-31T23:48:40.802Z,99958.97
2022-12-31T23:51:08.481Z,99967.69
2022-12-31T23:53:39.695Z,99959.69
2022-12-31T23:56:20.872Z,99959.56
2022-12-31T23:58:58.138Z,99957.41
